sensor_id;sensor_type;location;lat;lon;timestamp;P1;durP1;ratioP1;P2;durP2;ratioP2
48613;SDS011;34408;51.426;5.444;2024-02-04T00:00:50;10.45;;;7.72;;
48613;SDS011;34408;51.426;5.444;2024-02-04T00:03:17;10.05;;;7.40;;
48613;SDS011;34408;51.426;5.444;2024-02-04T00:05:46;10.13;;;6.72;;
48613;SDS011;34408;51.426;5.444;2024-02-04T00:08:14;8.50;;;6.80;;
48613;SDS011;34408;51.426;5.444;2024-02-04T00:10:43;8.82;;;7.78;;
48613;SDS011;34408;51.426;5.444;2024-02-04T00:13:11;8.48;;;7.28;;
48613;SDS011;34408;51.426;5.444;2024-02-04T00:15:40;16.15;;;7.43;;
48613;SDS011;34408;51.426;5.444;2024-02-04T00:18:08;10.57;;;7.03;;
48613;SDS011;34408;51.426;5.444;2024-02-04T00:20:36;7.22;;;6.05;;
48613;SDS011;34408;51.426;5.444;2024-02-04T00:23:04;8.65;;;6.68;;
48613;SDS011;34408;51.426;5.444;2024-02-04T00:25:31;8.35;;;7.30;;
48613;SDS011;34408;51.426;5.444;2024-02-04T00:28:00;7.88;;;6.40;;
48613;SDS011;34408;51.426;5.444;2024-02-04T00:30:28;7.40;;;6.07;;
48613;SDS011;34408;51.426;5.444;2024-02-04T00:32:57;6.93;;;5.90;;
48613;SDS011;34408;51.426;5.444;2024-02-04T00:35:29;9.60;;;6.75;;
48613;SDS011;34408;51.426;5.444;2024-02-04T00:37:57;9.82;;;6.55;;
48613;SDS011;34408;51.426;5.444;2024-02-04T00:40:25;8.30;;;6.55;;
48613;SDS011;34408;51.426;5.444;2024-02-04T00:42:53;7.05;;;6.35;;
48613;SDS011;34408;51.426;5.444;2024-02-04T00:45:20;8.18;;;6.70;;
48613;SDS011;34408;51.426;5.444;2024-02-04T00:47:48;7.28;;;6.50;;
48613;SDS011;34408;51.426;5.444;2024-02-04T00:50:17;9.07;;;7.15;;
48613;SDS011;34408;51.426;5.444;2024-02-04T00:52:45;7.95;;;7.13;;
48613;SDS011;34408;51.426;5.444;2024-02-04T00:55:13;9.35;;;7.57;;
48613;SDS011;34408;51.426;5.444;2024-02-04T00:57:41;10.65;;;7.55;;
48613;SDS011;34408;51.426;5.444;2024-02-04T01:00:09;8.55;;;7.68;;
48613;SDS011;34408;51.426;5.444;2024-02-04T01:02:39;9.30;;;8.05;;
48613;SDS011;34408;51.426;5.444;2024-02-04T01:05:07;10.48;;;8.07;;
48613;SDS011;34408;51.426;5.444;2024-02-04T01:07:36;10.85;;;8.57;;
48613;SDS011;34408;51.426;5.444;2024-02-04T01:10:04;11.00;;;9.55;;
48613;SDS011;34408;51.426;5.444;2024-02-04T01:12:35;10.55;;;9.07;;
48613;SDS011;34408;51.426;5.444;2024-02-04T01:15:03;10.90;;;9.05;;
48613;SDS011;34408;51.426;5.444;2024-02-04T01:17:32;9.75;;;8.52;;
48613;SDS011;34408;51.426;5.444;2024-02-04T01:20:00;9.88;;;8.88;;
48613;SDS011;34408;51.426;5.444;2024-02-04T01:22:28;10.00;;;9.00;;
48613;SDS011;34408;51.426;5.444;2024-02-04T01:24:57;9.68;;;8.10;;
48613;SDS011;34408;51.426;5.444;2024-02-04T01:27:25;10.52;;;7.97;;
48613;SDS011;34408;51.426;5.444;2024-02-04T01:29:53;8.80;;;7.90;;
48613;SDS011;34408;51.426;5.444;2024-02-04T01:32:22;12.70;;;8.13;;
48613;SDS011;34408;51.426;5.444;2024-02-04T01:34:51;9.85;;;7.80;;
48613;SDS011;34408;51.426;5.444;2024-02-04T01:37:19;11.20;;;8.20;;
48613;SDS011;34408;51.426;5.444;2024-02-04T01:39:46;10.55;;;8.05;;
48613;SDS011;34408;51.426;5.444;2024-02-04T01:42:16;7.97;;;6.95;;
48613;SDS011;34408;51.426;5.444;2024-02-04T01:44:44;9.60;;;6.97;;
48613;SDS011;34408;51.426;5.444;2024-02-04T01:47:11;7.82;;;7.03;;
48613;SDS011;34408;51.426;5.444;2024-02-04T01:49:39;9.00;;;7.10;;
48613;SDS011;34408;51.426;5.444;2024-02-04T01:52:08;10.95;;;7.13;;
48613;SDS011;34408;51.426;5.444;2024-02-04T01:54:37;10.18;;;6.47;;
48613;SDS011;34408;51.426;5.444;2024-02-04T01:57:09;9.95;;;7.10;;
48613;SDS011;34408;51.426;5.444;2024-02-04T01:59:39;8.57;;;6.75;;
48613;SDS011;34408;51.426;5.444;2024-02-04T02:02:07;10.38;;;7.43;;
48613;SDS011;34408;51.426;5.444;2024-02-04T02:04:35;18.52;;;7.60;;
48613;SDS011;34408;51.426;5.444;2024-02-04T02:07:03;11.88;;;7.30;;
48613;SDS011;34408;51.426;5.444;2024-02-04T02:09:34;16.35;;;8.15;;
48613;SDS011;34408;51.426;5.444;2024-02-04T02:12:03;13.27;;;7.43;;
48613;SDS011;34408;51.426;5.444;2024-02-04T02:14:37;10.57;;;8.10;;
48613;SDS011;34408;51.426;5.444;2024-02-04T02:17:10;12.13;;;7.95;;
48613;SDS011;34408;51.426;5.444;2024-02-04T02:19:46;14.13;;;8.10;;
48613;SDS011;34408;51.426;5.444;2024-02-04T02:22:24;17.55;;;8.52;;
48613;SDS011;34408;51.426;5.444;2024-02-04T02:27:25;12.57;;;7.95;;
48613;SDS011;34408;51.426;5.444;2024-02-04T02:29:53;17.25;;;9.18;;
48613;SDS011;34408;51.426;5.444;2024-02-04T02:32:21;15.55;;;8.63;;
48613;SDS011;34408;51.426;5.444;2024-02-04T02:34:49;18.80;;;9.57;;
48613;SDS011;34408;51.426;5.444;2024-02-04T02:37:20;14.10;;;8.90;;
48613;SDS011;34408;51.426;5.444;2024-02-04T02:39:56;17.33;;;8.27;;
48613;SDS011;34408;51.426;5.444;2024-02-04T02:42:28;17.35;;;8.93;;
48613;SDS011;34408;51.426;5.444;2024-02-04T02:44:58;17.58;;;8.90;;
48613;SDS011;34408;51.426;5.444;2024-02-04T02:47:26;14.15;;;8.45;;
48613;SDS011;34408;51.426;5.444;2024-02-04T02:49:56;18.67;;;8.65;;
48613;SDS011;34408;51.426;5.444;2024-02-04T02:52:24;14.38;;;8.68;;
48613;SDS011;34408;51.426;5.444;2024-02-04T02:54:52;15.70;;;7.68;;
48613;SDS011;34408;51.426;5.444;2024-02-04T02:57:21;20.33;;;7.65;;
48613;SDS011;34408;51.426;5.444;2024-02-04T02:59:49;16.25;;;8.77;;
48613;SDS011;34408;51.426;5.444;2024-02-04T03:02:17;18.23;;;7.68;;
48613;SDS011;34408;51.426;5.444;2024-02-04T03:04:45;16.48;;;7.68;;
48613;SDS011;34408;51.426;5.444;2024-02-04T03:07:13;16.00;;;7.10;;
48613;SDS011;34408;51.426;5.444;2024-02-04T03:09:40;16.27;;;7.10;;
48613;SDS011;34408;51.426;5.444;2024-02-04T03:12:10;16.00;;;7.93;;
48613;SDS011;34408;51.426;5.444;2024-02-04T03:14:39;13.10;;;7.70;;
48613;SDS011;34408;51.426;5.444;2024-02-04T03:17:06;13.73;;;6.90;;
48613;SDS011;34408;51.426;5.444;2024-02-04T03:19:34;13.40;;;6.97;;
48613;SDS011;34408;51.426;5.444;2024-02-04T03:22:02;21.55;;;8.27;;
48613;SDS011;34408;51.426;5.444;2024-02-04T03:24:30;16.63;;;7.43;;
48613;SDS011;34408;51.426;5.444;2024-02-04T03:26:58;17.65;;;7.65;;
48613;SDS011;34408;51.426;5.444;2024-02-04T03:29:25;15.20;;;6.85;;
48613;SDS011;34408;51.426;5.444;2024-02-04T03:31:55;14.85;;;7.05;;
48613;SDS011;34408;51.426;5.444;2024-02-04T03:34:23;14.63;;;6.93;;
48613;SDS011;34408;51.426;5.444;2024-02-04T03:36:51;18.08;;;7.47;;
48613;SDS011;34408;51.426;5.444;2024-02-04T03:39:19;19.38;;;7.63;;
48613;SDS011;34408;51.426;5.444;2024-02-04T03:41:47;22.10;;;6.72;;
48613;SDS011;34408;51.426;5.444;2024-02-04T03:44:14;23.10;;;9.23;;
48613;SDS011;34408;51.426;5.444;2024-02-04T03:46:42;15.93;;;6.55;;
48613;SDS011;34408;51.426;5.444;2024-02-04T03:49:12;18.73;;;6.88;;
48613;SDS011;34408;51.426;5.444;2024-02-04T03:51:40;15.75;;;5.90;;
48613;SDS011;34408;51.426;5.444;2024-02-04T03:54:07;14.50;;;7.68;;
48613;SDS011;34408;51.426;5.444;2024-02-04T03:56:35;11.82;;;6.15;;
48613;SDS011;34408;51.426;5.444;2024-02-04T03:59:03;13.07;;;6.65;;
48613;SDS011;34408;51.426;5.444;2024-02-04T04:01:32;12.50;;;6.57;;
48613;SDS011;34408;51.426;5.444;2024-02-04T04:04:01;16.38;;;7.13;;
48613;SDS011;34408;51.426;5.444;2024-02-04T04:06:31;16.23;;;6.35;;
48613;SDS011;34408;51.426;5.444;2024-02-04T04:08:58;12.65;;;5.93;;
48613;SDS011;34408;51.426;5.444;2024-02-04T04:11:26;14.25;;;6.72;;
48613;SDS011;34408;51.426;5.444;2024-02-04T04:13:54;17.48;;;7.75;;
48613;SDS011;34408;51.426;5.444;2024-02-04T04:16:22;21.70;;;8.15;;
48613;SDS011;34408;51.426;5.444;2024-02-04T04:18:50;21.60;;;7.28;;
48613;SDS011;34408;51.426;5.444;2024-02-04T04:21:18;17.23;;;6.57;;
48613;SDS011;34408;51.426;5.444;2024-02-04T04:23:47;12.43;;;5.95;;
48613;SDS011;34408;51.426;5.444;2024-02-04T04:26:15;17.25;;;6.22;;
48613;SDS011;34408;51.426;5.444;2024-02-04T04:28:42;17.85;;;7.05;;
48613;SDS011;34408;51.426;5.444;2024-02-04T04:31:10;15.55;;;6.72;;
48613;SDS011;34408;51.426;5.444;2024-02-04T04:33:38;17.67;;;7.85;;
48613;SDS011;34408;51.426;5.444;2024-02-04T04:36:06;17.95;;;8.02;;
48613;SDS011;34408;51.426;5.444;2024-02-04T04:38:34;13.90;;;6.75;;
48613;SDS011;34408;51.426;5.444;2024-02-04T04:41:03;10.82;;;5.90;;
48613;SDS011;34408;51.426;5.444;2024-02-04T04:43:36;16.27;;;8.20;;
48613;SDS011;34408;51.426;5.444;2024-02-04T04:46:04;20.52;;;6.55;;
48613;SDS011;34408;51.426;5.444;2024-02-04T04:48:32;13.60;;;6.63;;
48613;SDS011;34408;51.426;5.444;2024-02-04T04:51:00;13.60;;;6.85;;
48613;SDS011;34408;51.426;5.444;2024-02-04T04:53:27;10.32;;;6.40;;
48613;SDS011;34408;51.426;5.444;2024-02-04T04:55:55;16.15;;;6.35;;
48613;SDS011;34408;51.426;5.444;2024-02-04T04:58:25;18.30;;;6.40;;
48613;SDS011;34408;51.426;5.444;2024-02-04T05:00:53;15.63;;;6.60;;
48613;SDS011;34408;51.426;5.444;2024-02-04T05:03:21;16.35;;;7.43;;
48613;SDS011;34408;51.426;5.444;2024-02-04T05:05:49;14.82;;;7.82;;
48613;SDS011;34408;51.426;5.444;2024-02-04T05:08:16;16.75;;;9.32;;
48613;SDS011;34408;51.426;5.444;2024-02-04T05:10:44;15.10;;;9.40;;
48613;SDS011;34408;51.426;5.444;2024-02-04T05:13:12;16.65;;;9.43;;
48613;SDS011;34408;51.426;5.444;2024-02-04T05:15:41;16.90;;;9.52;;
48613;SDS011;34408;51.426;5.444;2024-02-04T05:18:09;21.35;;;13.65;;
48613;SDS011;34408;51.426;5.444;2024-02-04T05:20:37;17.10;;;12.30;;
48613;SDS011;34408;51.426;5.444;2024-02-04T05:23:05;21.67;;;12.80;;
48613;SDS011;34408;51.426;5.444;2024-02-04T05:25:33;26.90;;;14.07;;
48613;SDS011;34408;51.426;5.444;2024-02-04T05:28:01;17.90;;;13.00;;
48613;SDS011;34408;51.426;5.444;2024-02-04T05:30:28;25.83;;;15.25;;
48613;SDS011;34408;51.426;5.444;2024-02-04T05:32:58;24.67;;;15.43;;
48613;SDS011;34408;51.426;5.444;2024-02-04T05:35:25;25.50;;;15.80;;
48613;SDS011;34408;51.426;5.444;2024-02-04T05:37:53;28.60;;;15.55;;
48613;SDS011;34408;51.426;5.444;2024-02-04T05:40:21;26.55;;;17.30;;
48613;SDS011;34408;51.426;5.444;2024-02-04T05:42:49;22.73;;;17.55;;
48613;SDS011;34408;51.426;5.444;2024-02-04T05:45:18;26.63;;;17.30;;
48613;SDS011;34408;51.426;5.444;2024-02-04T05:47:46;24.30;;;17.83;;
48613;SDS011;34408;51.426;5.444;2024-02-04T05:50:15;30.20;;;18.25;;
48613;SDS011;34408;51.426;5.444;2024-02-04T05:52:43;31.25;;;19.45;;
48613;SDS011;34408;51.426;5.444;2024-02-04T05:55:11;30.33;;;17.75;;
48613;SDS011;34408;51.426;5.444;2024-02-04T05:57:39;28.35;;;19.88;;
48613;SDS011;34408;51.426;5.444;2024-02-04T06:00:07;27.27;;;16.67;;
48613;SDS011;34408;51.426;5.444;2024-02-04T06:02:36;28.73;;;17.30;;
48613;SDS011;34408;51.426;5.444;2024-02-04T06:05:04;24.95;;;16.48;;
48613;SDS011;34408;51.426;5.444;2024-02-04T06:07:34;27.73;;;18.05;;
48613;SDS011;34408;51.426;5.444;2024-02-04T06:10:02;24.83;;;17.17;;
48613;SDS011;34408;51.426;5.444;2024-02-04T06:12:30;26.30;;;16.75;;
48613;SDS011;34408;51.426;5.444;2024-02-04T06:14:58;27.10;;;16.45;;
48613;SDS011;34408;51.426;5.444;2024-02-04T06:17:26;24.50;;;15.00;;
48613;SDS011;34408;51.426;5.444;2024-02-04T06:19:54;21.17;;;14.80;;
48613;SDS011;34408;51.426;5.444;2024-02-04T06:22:23;26.63;;;13.82;;
48613;SDS011;34408;51.426;5.444;2024-02-04T06:24:53;20.25;;;14.43;;
48613;SDS011;34408;51.426;5.444;2024-02-04T06:27:20;23.00;;;13.95;;
48613;SDS011;34408;51.426;5.444;2024-02-04T06:29:48;20.10;;;13.77;;
48613;SDS011;34408;51.426;5.444;2024-02-04T06:32:16;18.27;;;13.82;;
48613;SDS011;34408;51.426;5.444;2024-02-04T06:34:46;21.50;;;13.45;;
48613;SDS011;34408;51.426;5.444;2024-02-04T06:37:15;20.10;;;13.02;;
48613;SDS011;34408;51.426;5.444;2024-02-04T06:39:42;19.50;;;12.82;;
48613;SDS011;34408;51.426;5.444;2024-02-04T06:42:12;18.38;;;13.32;;
48613;SDS011;34408;51.426;5.444;2024-02-04T06:44:41;17.08;;;12.50;;
48613;SDS011;34408;51.426;5.444;2024-02-04T06:47:09;17.73;;;13.68;;
48613;SDS011;34408;51.426;5.444;2024-02-04T06:49:38;17.70;;;13.07;;
48613;SDS011;34408;51.426;5.444;2024-02-04T06:52:06;18.85;;;13.05;;
48613;SDS011;34408;51.426;5.444;2024-02-04T06:54:35;21.88;;;13.98;;
48613;SDS011;34408;51.426;5.444;2024-02-04T06:57:03;18.67;;;13.07;;
48613;SDS011;34408;51.426;5.444;2024-02-04T06:59:32;19.42;;;14.75;;
48613;SDS011;34408;51.426;5.444;2024-02-04T07:02:00;19.77;;;13.85;;
48613;SDS011;34408;51.426;5.444;2024-02-04T07:04:28;23.10;;;14.02;;
48613;SDS011;34408;51.426;5.444;2024-02-04T07:06:56;21.88;;;14.38;;
48613;SDS011;34408;51.426;5.444;2024-02-04T07:09:23;24.80;;;15.07;;
48613;SDS011;34408;51.426;5.444;2024-02-04T07:11:51;20.90;;;13.57;;
48613;SDS011;34408;51.426;5.444;2024-02-04T07:14:19;20.85;;;15.15;;
48613;SDS011;34408;51.426;5.444;2024-02-04T07:16:48;21.15;;;15.48;;
48613;SDS011;34408;51.426;5.444;2024-02-04T07:19:16;19.95;;;14.57;;
48613;SDS011;34408;51.426;5.444;2024-02-04T07:21:44;23.45;;;15.60;;
48613;SDS011;34408;51.426;5.444;2024-02-04T07:24:12;21.25;;;15.48;;
48613;SDS011;34408;51.426;5.444;2024-02-04T07:26:39;18.77;;;14.77;;
48613;SDS011;34408;51.426;5.444;2024-02-04T07:29:07;22.13;;;14.35;;
48613;SDS011;34408;51.426;5.444;2024-02-04T07:31:35;21.80;;;15.20;;
48613;SDS011;34408;51.426;5.444;2024-02-04T07:34:05;21.70;;;15.43;;
48613;SDS011;34408;51.426;5.444;2024-02-04T07:36:33;18.90;;;13.20;;
48613;SDS011;34408;51.426;5.444;2024-02-04T07:39:01;19.10;;;14.38;;
48613;SDS011;34408;51.426;5.444;2024-02-04T07:41:31;19.45;;;14.50;;
48613;SDS011;34408;51.426;5.444;2024-02-04T07:43:58;20.35;;;14.52;;
48613;SDS011;34408;51.426;5.444;2024-02-04T07:46:26;20.50;;;13.65;;
48613;SDS011;34408;51.426;5.444;2024-02-04T07:48:54;19.83;;;14.25;;
48613;SDS011;34408;51.426;5.444;2024-02-04T07:51:23;22.13;;;14.68;;
48613;SDS011;34408;51.426;5.444;2024-02-04T07:53:51;20.83;;;14.45;;
48613;SDS011;34408;51.426;5.444;2024-02-04T07:56:19;25.73;;;14.15;;
48613;SDS011;34408;51.426;5.444;2024-02-04T07:58:47;17.25;;;13.65;;
48613;SDS011;34408;51.426;5.444;2024-02-04T08:01:14;19.83;;;14.88;;
48613;SDS011;34408;51.426;5.444;2024-02-04T08:03:43;19.40;;;12.90;;
48613;SDS011;34408;51.426;5.444;2024-02-04T08:06:13;19.30;;;14.43;;
48613;SDS011;34408;51.426;5.444;2024-02-04T08:08:42;18.65;;;14.18;;
48613;SDS011;34408;51.426;5.444;2024-02-04T08:11:15;19.40;;;13.20;;
48613;SDS011;34408;51.426;5.444;2024-02-04T08:13:44;21.52;;;14.55;;
48613;SDS011;34408;51.426;5.444;2024-02-04T08:16:11;21.10;;;14.63;;
48613;SDS011;34408;51.426;5.444;2024-02-04T08:18:39;17.10;;;14.02;;
48613;SDS011;34408;51.426;5.444;2024-02-04T08:21:07;22.02;;;13.98;;
48613;SDS011;34408;51.426;5.444;2024-02-04T08:23:35;19.23;;;13.45;;
48613;SDS011;34408;51.426;5.444;2024-02-04T08:26:04;17.00;;;12.88;;
48613;SDS011;34408;51.426;5.444;2024-02-04T08:28:32;19.60;;;14.38;;
48613;SDS011;34408;51.426;5.444;2024-02-04T08:31:00;19.02;;;14.63;;
48613;SDS011;34408;51.426;5.444;2024-02-04T08:33:28;19.77;;;13.55;;
48613;SDS011;34408;51.426;5.444;2024-02-04T08:35:56;21.80;;;14.75;;
48613;SDS011;34408;51.426;5.444;2024-02-04T08:38:24;17.73;;;12.73;;
48613;SDS011;34408;51.426;5.444;2024-02-04T08:40:52;17.98;;;14.27;;
48613;SDS011;34408;51.426;5.444;2024-02-04T08:43:21;21.83;;;14.05;;
48613;SDS011;34408;51.426;5.444;2024-02-04T08:45:49;18.38;;;14.25;;
48613;SDS011;34408;51.426;5.444;2024-02-04T08:48:17;22.27;;;14.73;;
48613;SDS011;34408;51.426;5.444;2024-02-04T08:50:45;17.02;;;14.00;;
48613;SDS011;34408;51.426;5.444;2024-02-04T08:53:13;26.83;;;14.52;;
48613;SDS011;34408;51.426;5.444;2024-02-04T08:55:40;18.88;;;13.98;;
48613;SDS011;34408;51.426;5.444;2024-02-04T08:58:08;20.85;;;12.75;;
48613;SDS011;34408;51.426;5.444;2024-02-04T09:00:38;20.65;;;14.15;;
48613;SDS011;34408;51.426;5.444;2024-02-04T09:03:05;20.40;;;13.77;;
48613;SDS011;34408;51.426;5.444;2024-02-04T09:05:33;21.27;;;14.07;;
48613;SDS011;34408;51.426;5.444;2024-02-04T09:08:01;17.75;;;13.93;;
48613;SDS011;34408;51.426;5.444;2024-02-04T09:10:29;19.45;;;14.35;;
48613;SDS011;34408;51.426;5.444;2024-02-04T09:12:57;20.42;;;14.10;;
48613;SDS011;34408;51.426;5.444;2024-02-04T09:15:25;17.50;;;14.60;;
48613;SDS011;34408;51.426;5.444;2024-02-04T09:17:54;20.40;;;14.45;;
48613;SDS011;34408;51.426;5.444;2024-02-04T09:20:22;18.52;;;13.45;;
48613;SDS011;34408;51.426;5.444;2024-02-04T09:22:50;18.83;;;13.23;;
48613;SDS011;34408;51.426;5.444;2024-02-04T09:25:18;17.48;;;12.75;;
48613;SDS011;34408;51.426;5.444;2024-02-04T09:27:46;19.75;;;12.80;;
48613;SDS011;34408;51.426;5.444;2024-02-04T09:30:14;18.17;;;12.77;;
48613;SDS011;34408;51.426;5.444;2024-02-04T09:32:42;13.70;;;11.80;;
48613;SDS011;34408;51.426;5.444;2024-02-04T09:35:12;15.32;;;13.07;;
48613;SDS011;34408;51.426;5.444;2024-02-04T09:37:41;18.92;;;13.60;;
48613;SDS011;34408;51.426;5.444;2024-02-04T09:40:10;16.02;;;13.75;;
48613;SDS011;34408;51.426;5.444;2024-02-04T09:42:38;15.60;;;13.63;;
48613;SDS011;34408;51.426;5.444;2024-02-04T09:45:08;16.70;;;13.15;;
48613;SDS011;34408;51.426;5.444;2024-02-04T09:47:37;17.67;;;12.75;;
48613;SDS011;34408;51.426;5.444;2024-02-04T09:50:08;19.33;;;13.20;;
48613;SDS011;34408;51.426;5.444;2024-02-04T09:52:39;23.75;;;14.23;;
48613;SDS011;34408;51.426;5.444;2024-02-04T09:55:08;17.02;;;13.50;;
48613;SDS011;34408;51.426;5.444;2024-02-04T09:57:38;19.02;;;13.68;;
48613;SDS011;34408;51.426;5.444;2024-02-04T10:00:06;19.67;;;14.93;;
48613;SDS011;34408;51.426;5.444;2024-02-04T10:02:36;16.02;;;12.75;;
48613;SDS011;34408;51.426;5.444;2024-02-04T10:05:05;17.02;;;13.55;;
48613;SDS011;34408;51.426;5.444;2024-02-04T10:07:35;15.68;;;12.90;;
48613;SDS011;34408;51.426;5.444;2024-02-04T10:10:05;14.77;;;11.18;;
48613;SDS011;34408;51.426;5.444;2024-02-04T10:12:34;15.70;;;12.73;;
48613;SDS011;34408;51.426;5.444;2024-02-04T10:15:04;14.52;;;12.30;;
48613;SDS011;34408;51.426;5.444;2024-02-04T10:17:33;13.35;;;11.30;;
48613;SDS011;34408;51.426;5.444;2024-02-04T10:20:01;16.08;;;11.88;;
48613;SDS011;34408;51.426;5.444;2024-02-04T10:22:29;15.65;;;10.77;;
48613;SDS011;34408;51.426;5.444;2024-02-04T10:25:06;13.10;;;10.35;;
48613;SDS011;34408;51.426;5.444;2024-02-04T10:27:35;15.35;;;10.38;;
48613;SDS011;34408;51.426;5.444;2024-02-04T10:30:04;13.68;;;10.48;;
48613;SDS011;34408;51.426;5.444;2024-02-04T10:32:33;13.52;;;10.10;;
48613;SDS011;34408;51.426;5.444;2024-02-04T10:35:01;12.95;;;10.15;;
48613;SDS011;34408;51.426;5.444;2024-02-04T10:37:29;12.55;;;9.48;;
48613;SDS011;34408;51.426;5.444;2024-02-04T10:39:57;13.18;;;10.00;;
48613;SDS011;34408;51.426;5.444;2024-02-04T10:42:26;18.20;;;10.43;;
48613;SDS011;34408;51.426;5.444;2024-02-04T10:44:55;16.38;;;9.05;;
48613;SDS011;34408;51.426;5.444;2024-02-04T10:47:31;11.32;;;9.40;;
48613;SDS011;34408;51.426;5.444;2024-02-04T10:50:03;15.15;;;9.60;;
48613;SDS011;34408;51.426;5.444;2024-02-04T10:52:34;17.55;;;10.57;;
48613;SDS011;34408;51.426;5.444;2024-02-04T10:55:05;14.63;;;9.45;;
48613;SDS011;34408;51.426;5.444;2024-02-04T10:57:37;16.38;;;9.93;;
48613;SDS011;34408;51.426;5.444;2024-02-04T11:00:06;14.60;;;9.50;;
48613;SDS011;34408;51.426;5.444;2024-02-04T11:02:38;11.48;;;8.95;;
48613;SDS011;34408;51.426;5.444;2024-02-04T11:05:07;12.88;;;9.30;;
48613;SDS011;34408;51.426;5.444;2024-02-04T11:07:37;14.15;;;9.30;;
48613;SDS011;34408;51.426;5.444;2024-02-04T11:10:06;12.10;;;8.85;;
48613;SDS011;34408;51.426;5.444;2024-02-04T11:12:34;14.68;;;9.02;;
48613;SDS011;34408;51.426;5.444;2024-02-04T11:15:06;12.73;;;9.52;;
48613;SDS011;34408;51.426;5.444;2024-02-04T11:17:50;12.07;;;8.80;;
48613;SDS011;34408;51.426;5.444;2024-02-04T11:20:41;9.82;;;8.30;;
48613;SDS011;34408;51.426;5.444;2024-02-04T11:23:33;12.98;;;9.65;;
48613;SDS011;34408;51.426;5.444;2024-02-04T11:26:07;11.00;;;8.63;;
48613;SDS011;34408;51.426;5.444;2024-02-04T11:28:37;12.60;;;9.02;;
48613;SDS011;34408;51.426;5.444;2024-02-04T11:31:14;12.70;;;8.98;;
48613;SDS011;34408;51.426;5.444;2024-02-04T11:36:29;15.38;;;8.20;;
48613;SDS011;34408;51.426;5.444;2024-02-04T11:38:57;11.85;;;7.70;;
48613;SDS011;34408;51.426;5.444;2024-02-04T11:41:26;12.52;;;8.00;;
48613;SDS011;34408;51.426;5.444;2024-02-04T11:43:55;14.88;;;8.52;;
48613;SDS011;34408;51.426;5.444;2024-02-04T11:46:29;11.00;;;8.27;;
48613;SDS011;34408;51.426;5.444;2024-02-04T11:49:00;13.68;;;8.65;;
48613;SDS011;34408;51.426;5.444;2024-02-04T11:51:28;11.73;;;8.00;;
48613;SDS011;34408;51.426;5.444;2024-02-04T11:53:56;13.60;;;7.68;;
48613;SDS011;34408;51.426;5.444;2024-02-04T11:56:25;9.27;;;7.78;;
48613;SDS011;34408;51.426;5.444;2024-02-04T11:58:53;10.63;;;8.10;;
48613;SDS011;34408;51.426;5.444;2024-02-04T12:01:21;15.15;;;9.43;;
48613;SDS011;34408;51.426;5.444;2024-02-04T12:03:51;11.85;;;7.78;;
48613;SDS011;34408;51.426;5.444;2024-02-04T12:06:19;12.18;;;7.68;;
48613;SDS011;34408;51.426;5.444;2024-02-04T12:08:47;9.80;;;7.45;;
48613;SDS011;34408;51.426;5.444;2024-02-04T12:11:16;13.48;;;7.78;;
48613;SDS011;34408;51.426;5.444;2024-02-04T12:13:44;12.85;;;7.78;;
48613;SDS011;34408;51.426;5.444;2024-02-04T12:16:12;12.63;;;7.82;;
48613;SDS011;34408;51.426;5.444;2024-02-04T12:18:47;10.80;;;7.68;;
48613;SDS011;34408;51.426;5.444;2024-02-04T12:21:17;12.88;;;8.35;;
48613;SDS011;34408;51.426;5.444;2024-02-04T12:23:45;12.40;;;7.05;;
48613;SDS011;34408;51.426;5.444;2024-02-04T12:26:13;11.45;;;7.70;;
48613;SDS011;34408;51.426;5.444;2024-02-04T12:28:41;12.93;;;7.38;;
48613;SDS011;34408;51.426;5.444;2024-02-04T12:31:15;11.35;;;7.35;;
48613;SDS011;34408;51.426;5.444;2024-02-04T12:33:51;11.45;;;6.60;;
48613;SDS011;34408;51.426;5.444;2024-02-04T12:36:22;12.95;;;6.57;;
48613;SDS011;34408;51.426;5.444;2024-02-04T12:38:52;13.13;;;7.60;;
48613;SDS011;34408;51.426;5.444;2024-02-04T12:41:21;8.80;;;7.05;;
48613;SDS011;34408;51.426;5.444;2024-02-04T12:43:50;10.00;;;6.30;;
48613;SDS011;34408;51.426;5.444;2024-02-04T12:46:19;11.02;;;7.00;;
48613;SDS011;34408;51.426;5.444;2024-02-04T12:48:50;9.07;;;6.10;;
48613;SDS011;34408;51.426;5.444;2024-02-04T12:51:27;9.57;;;7.15;;
48613;SDS011;34408;51.426;5.444;2024-02-04T12:54:02;8.23;;;6.10;;
48613;SDS011;34408;51.426;5.444;2024-02-04T12:56:41;8.88;;;5.97;;
48613;SDS011;34408;51.426;5.444;2024-02-04T12:59:11;9.55;;;5.72;;
48613;SDS011;34408;51.426;5.444;2024-02-04T13:01:51;8.35;;;5.90;;
48613;SDS011;34408;51.426;5.444;2024-02-04T13:04:21;12.68;;;6.38;;
48613;SDS011;34408;51.426;5.444;2024-02-04T13:06:51;13.75;;;5.95;;
48613;SDS011;34408;51.426;5.444;2024-02-04T13:09:19;11.20;;;5.97;;
48613;SDS011;34408;51.426;5.444;2024-02-04T13:11:49;8.60;;;5.80;;
48613;SDS011;34408;51.426;5.444;2024-02-04T13:14:17;7.93;;;5.25;;
48613;SDS011;34408;51.426;5.444;2024-02-04T13:16:45;10.30;;;5.30;;
48613;SDS011;34408;51.426;5.444;2024-02-04T13:19:14;8.90;;;5.57;;
48613;SDS011;34408;51.426;5.444;2024-02-04T13:21:42;9.55;;;5.00;;
48613;SDS011;34408;51.426;5.444;2024-02-04T13:24:11;7.75;;;4.90;;
48613;SDS011;34408;51.426;5.444;2024-02-04T13:26:39;6.22;;;4.82;;
48613;SDS011;34408;51.426;5.444;2024-02-04T13:29:07;8.38;;;4.72;;
48613;SDS011;34408;51.426;5.444;2024-02-04T13:31:35;8.15;;;4.88;;
48613;SDS011;34408;51.426;5.444;2024-02-04T13:34:03;6.63;;;4.43;;
48613;SDS011;34408;51.426;5.444;2024-02-04T13:36:31;6.72;;;4.40;;
48613;SDS011;34408;51.426;5.444;2024-02-04T13:39:00;7.40;;;4.07;;
48613;SDS011;34408;51.426;5.444;2024-02-04T13:41:29;9.95;;;3.90;;
48613;SDS011;34408;51.426;5.444;2024-02-04T13:43:57;5.78;;;3.80;;
48613;SDS011;34408;51.426;5.444;2024-02-04T13:46:25;6.95;;;4.07;;
48613;SDS011;34408;51.426;5.444;2024-02-04T13:48:53;9.63;;;4.63;;
48613;SDS011;34408;51.426;5.444;2024-02-04T13:51:21;7.05;;;3.35;;
48613;SDS011;34408;51.426;5.444;2024-02-04T13:54:06;10.73;;;4.68;;
48613;SDS011;34408;51.426;5.444;2024-02-04T13:56:35;4.75;;;3.50;;
48613;SDS011;34408;51.426;5.444;2024-02-04T13:59:03;7.13;;;4.00;;
48613;SDS011;34408;51.426;5.444;2024-02-04T14:01:32;11.40;;;4.03;;
48613;SDS011;34408;51.426;5.444;2024-02-04T14:04:00;9.48;;;4.63;;
48613;SDS011;34408;51.426;5.444;2024-02-04T14:06:29;6.70;;;4.50;;
48613;SDS011;34408;51.426;5.444;2024-02-04T14:08:57;7.18;;;4.28;;
48613;SDS011;34408;51.426;5.444;2024-02-04T14:11:24;9.35;;;4.78;;
48613;SDS011;34408;51.426;5.444;2024-02-04T14:13:54;9.15;;;4.68;;
48613;SDS011;34408;51.426;5.444;2024-02-04T14:16:21;7.10;;;4.07;;
48613;SDS011;34408;51.426;5.444;2024-02-04T14:18:49;8.57;;;5.00;;
48613;SDS011;34408;51.426;5.444;2024-02-04T14:21:17;9.13;;;4.40;;
48613;SDS011;34408;51.426;5.444;2024-02-04T14:23:45;9.10;;;4.43;;
48613;SDS011;34408;51.426;5.444;2024-02-04T14:26:16;9.23;;;4.40;;
48613;SDS011;34408;51.426;5.444;2024-02-04T14:28:44;7.32;;;4.03;;
48613;SDS011;34408;51.426;5.444;2024-02-04T14:31:13;5.57;;;4.30;;
48613;SDS011;34408;51.426;5.444;2024-02-04T14:33:42;7.07;;;4.10;;
48613;SDS011;34408;51.426;5.444;2024-02-04T14:36:10;7.03;;;4.15;;
48613;SDS011;34408;51.426;5.444;2024-02-04T14:38:38;4.88;;;3.97;;
48613;SDS011;34408;51.426;5.444;2024-02-04T14:41:06;7.85;;;4.43;;
48613;SDS011;34408;51.426;5.444;2024-02-04T14:43:33;8.10;;;4.32;;
48613;SDS011;34408;51.426;5.444;2024-02-04T14:46:02;7.78;;;3.40;;
48613;SDS011;34408;51.426;5.444;2024-02-04T14:48:31;7.45;;;4.03;;